createdAt,value
2022-12-08T00:01:21.980Z,97928.53
2022-12-08T00:03:49.372Z,97929.53
2022-12-08T00:06:43.233Z,97931.03
2022-12-08T00:09:22.246Z,97930.06
2022-12-08T00:11:51.314Z,97927.88
2022-12-08T00:14:18.277Z,97914.56
2022-12-08T00:16:45.362Z,97932.88
2022-12-08T00:19:12.367Z,97935.38
2022-12-08T00:21:39.371Z,97931.03
2022-12-08T00:24:06.678Z,97937.34
2022-12-08T00:26:33.653Z,97932.53
2022-12-08T00:29:00.577Z,97932.88
2022-12-08T00:31:27.495Z,97932.72
2022-12-08T00:33:54.433Z,97947.03
2022-12-08T00:36:21.350Z,97942.53
2022-12-08T00:38:48.865Z,97944.50
2022-12-08T00:41:19.557Z,97954.19
2022-12-08T00:43:46.422Z,97949.69
2022-12-08T00:46:13.431Z,97951.53
2022-12-08T00:48:40.402Z,97959.19
2022-12-08T00:51:07.348Z,97963.38
2022-12-08T00:53:34.283Z,97953.19
2022-12-08T00:56:01.200Z,97957.22
2022-12-08T00:58:29.334Z,97961.22
2022-12-08T01:00:56.369Z,97961.22
2022-12-08T01:03:23.331Z,97958.41
2022-12-08T01:05:50.245Z,97968.22
2022-12-08T01:08:17.249Z,97974.38
2022-12-08T01:10:44.216Z,97973.69
2022-12-08T01:13:11.620Z,97971.72
2022-12-08T01:15:38.565Z,97971.53
2022-12-08T01:18:05.462Z,97969.56
2022-12-08T01:20:32.378Z,97976.38
2022-12-08T01:22:59.301Z,97976.25
2022-12-08T01:25:26.219Z,97973.56
2022-12-08T01:27:53.936Z,97967.25
2022-12-08T01:30:21.714Z,97969.91
2022-12-08T01:32:48.620Z,97967.56
2022-12-08T01:35:15.606Z,97966.56
2022-12-08T01:37:42.540Z,97974.22
2022-12-08T01:40:10.385Z,97966.56
2022-12-08T01:42:38.612Z,97960.25
2022-12-08T01:45:29.935Z,97957.59
2022-12-08T01:48:03.117Z,97954.91
2022-12-08T01:50:30.937Z,97957.59
2022-12-08T01:53:09.704Z,97961.75
2022-12-08T01:55:42.809Z,97961.94
2022-12-08T01:58:43.876Z,97953.94
2022-12-08T02:01:11.236Z,97936.88
2022-12-08T02:03:58.705Z,97964.88
2022-12-08T02:06:53.450Z,97965.06
2022-12-08T02:09:36.679Z,97965.22
2022-12-08T02:12:26.997Z,97968.56
2022-12-08T02:15:09.207Z,97966.91
2022-12-08T02:17:59.895Z,97966.91
2022-12-08T02:24:26.577Z,97959.69
2022-12-08T02:27:34.356Z,97956.03
2022-12-08T02:30:19.498Z,97964.03
2022-12-08T02:33:06.422Z,97965.00
2022-12-08T02:35:44.864Z,97960.53
2022-12-08T02:38:17.663Z,97971.19
2022-12-08T02:41:00.304Z,97964.22
2022-12-08T02:43:34.129Z,97967.69
2022-12-08T02:46:06.017Z,97971.19
2022-12-08T02:48:34.415Z,97959.38
2022-12-08T02:51:01.514Z,97968.84
2022-12-08T02:53:34.815Z,97964.50
2022-12-08T02:56:35.387Z,97969.00
2022-12-08T02:59:17.534Z,97968.50
2022-12-08T03:02:09.664Z,97961.97
2022-12-08T03:04:39.712Z,97962.16
2022-12-08T03:07:09.599Z,97967.78
2022-12-08T03:09:55.226Z,97964.47
2022-12-08T03:12:38.332Z,97960.25
2022-12-08T03:15:13.746Z,97964.75
2022-12-08T03:17:45.836Z,97956.72
2022-12-08T03:20:17.786Z,97954.44
2022-12-08T03:22:46.679Z,97949.44
2022-12-08T03:25:15.760Z,97950.94
2022-12-08T03:27:43.471Z,97957.78
2022-12-08T03:30:11.127Z,97947.59
2022-12-08T03:32:52.408Z,97949.09
2022-12-08T03:35:31.612Z,97946.63
2022-12-08T03:38:11.057Z,97946.44
2022-12-08T03:40:38.470Z,97950.09
2022-12-08T03:43:05.439Z,97945.78
2022-12-08T03:45:32.717Z,97937.94
2022-12-08T03:47:59.688Z,97947.75
2022-12-08T03:50:26.890Z,97944.44
2022-12-08T03:52:53.856Z,97947.09
2022-12-08T03:55:21.754Z,97948.09
2022-12-08T03:57:48.691Z,97953.41
2022-12-08T04:00:17.264Z,97949.75
2022-12-08T04:02:44.547Z,97959.38
2022-12-08T04:05:11.540Z,97950.56
2022-12-08T04:07:38.487Z,97962.06
2022-12-08T04:10:06.237Z,97962.25
2022-12-08T04:12:33.408Z,97960.72
2022-12-08T04:15:00.365Z,97957.03
2022-12-08T04:17:27.682Z,97959.34
2022-12-08T04:19:54.601Z,97967.34
2022-12-08T04:22:21.525Z,97956.19
2022-12-08T04:24:48.497Z,97953.53
2022-12-08T04:27:15.487Z,97952.84
2022-12-08T04:29:42.408Z,97955.34
2022-12-08T04:32:09.355Z,97950.84
2022-12-08T04:34:36.243Z,97952.69
2022-12-08T04:37:03.133Z,97947.50
2022-12-08T04:39:30.036Z,97948.34
2022-12-08T04:41:56.948Z,97945.69
2022-12-08T04:44:23.889Z,97947.34
2022-12-08T04:46:50.922Z,97943.03
2022-12-08T04:49:17.907Z,97946.38
2022-12-08T04:51:44.829Z,97936.72
2022-12-08T04:54:11.768Z,97911.66
2022-12-08T04:56:38.737Z,97942.03
2022-12-08T04:59:05.687Z,97943.03
2022-12-08T05:01:32.812Z,97924.50
2022-12-08T05:03:59.741Z,97936.00
2022-12-08T05:06:26.683Z,97936.72
2022-12-08T05:08:53.596Z,97944.84
2022-12-08T05:11:20.550Z,97934.00
2022-12-08T05:13:47.929Z,97941.34
2022-12-08T05:16:17.519Z,97940.34
2022-12-08T05:18:44.804Z,97940.22
2022-12-08T05:21:12.032Z,97949.69
2022-12-08T05:23:39.338Z,97938.06
2022-12-08T05:26:06.524Z,97939.72
2022-12-08T05:28:42.767Z,97941.72
2022-12-08T05:31:12.030Z,97942.06
2022-12-08T05:33:38.959Z,97930.44
2022-12-08T05:36:06.275Z,97929.25
2022-12-08T05:38:33.355Z,97931.78
2022-12-08T05:41:00.318Z,97925.44
2022-12-08T05:43:27.673Z,97946.63
2022-12-08T05:45:54.566Z,97943.97
2022-12-08T05:48:21.549Z,97936.13
2022-12-08T05:50:49.614Z,97940.44
2022-12-08T05:53:18.322Z,97948.44
2022-12-08T05:55:45.978Z,97951.25
2022-12-08T05:58:15.876Z,97942.44
2022-12-08T06:00:43.270Z,97946.25
2022-12-08T06:03:13.349Z,97949.22
2022-12-08T06:05:45.356Z,97941.03
2022-12-08T06:08:13.489Z,97961.88
2022-12-08T06:10:42.422Z,97965.53
2022-12-08T06:13:09.488Z,97969.03
2022-12-08T06:15:37.424Z,97958.53
2022-12-08T06:18:05.226Z,97954.34
2022-12-08T06:20:32.228Z,97953.53
2022-12-08T06:22:59.198Z,97953.00
2022-12-08T06:25:27.518Z,97955.50
2022-12-08T06:27:54.480Z,97932.59
2022-12-08T06:30:21.422Z,97968.66
2022-12-08T06:32:48.424Z,97947.97
2022-12-08T06:35:15.301Z,97964.16
2022-12-08T06:37:42.249Z,97970.34
2022-12-08T06:40:09.666Z,97961.00
2022-12-08T06:42:46.790Z,97973.00
2022-12-08T06:45:18.197Z,97953.63
2022-12-08T06:47:45.164Z,97971.31
2022-12-08T06:50:13.587Z,97982.84
2022-12-08T06:52:51.663Z,97978.03
2022-12-08T06:55:57.239Z,97985.88
2022-12-08T06:58:14.205Z,97988.41
2022-12-08T07:00:41.958Z,97997.03
2022-12-08T07:03:09.969Z,97982.84
2022-12-08T07:05:37.435Z,98000.69
2022-12-08T07:08:05.919Z,97993.88
2022-12-08T07:10:33.723Z,97992.03
2022-12-08T07:13:00.777Z,97997.72
2022-12-08T07:15:27.739Z,97994.06
2022-12-08T07:17:59.595Z,97988.72
2022-12-08T07:20:27.110Z,97990.25
2022-12-08T07:22:54.761Z,97982.22
2022-12-08T07:25:21.746Z,97991.09
2022-12-08T07:27:51.619Z,97990.59
2022-12-08T07:30:20.045Z,97988.25
2022-12-08T07:32:48.153Z,97989.91
2022-12-08T07:35:15.094Z,97990.75
2022-12-08T07:37:42.270Z,97991.59
2022-12-08T07:40:10.479Z,97979.28
2022-12-08T07:42:37.543Z,97985.59
2022-12-08T07:45:04.697Z,97983.47
2022-12-08T07:47:31.766Z,97987.13
2022-12-08T07:49:58.788Z,97975.63
2022-12-08T07:52:25.779Z,97995.94
2022-12-08T07:54:53.455Z,97996.09
2022-12-08T07:57:21.463Z,97994.13
2022-12-08T07:59:48.333Z,97984.31
2022-12-08T08:02:25.241Z,97987.94
2022-12-08T08:04:53.448Z,97982.63
2022-12-08T08:07:20.561Z,97992.13
2022-12-08T08:09:47.562Z,97995.28
2022-12-08T08:12:30.936Z,97976.13
2022-12-08T08:15:03.756Z,97990.38
2022-12-08T08:17:30.934Z,97997.22
2022-12-08T08:19:58.290Z,97990.09
2022-12-08T08:22:26.632Z,97993.31
2022-12-08T08:24:54.567Z,97996.66
2022-12-08T08:27:21.868Z,97985.84
2022-12-08T08:29:48.942Z,97990.53
2022-12-08T08:32:15.984Z,97995.03
2022-12-08T08:34:43.454Z,97976.69
2022-12-08T08:37:10.533Z,97997.56
2022-12-08T08:39:37.529Z,97989.41
2022-12-08T08:42:04.623Z,97987.22
2022-12-08T08:44:31.573Z,97990.38
2022-12-08T08:46:58.639Z,97983.72
2022-12-08T08:49:25.565Z,97983.56
2022-12-08T08:51:52.926Z,97988.91
2022-12-08T08:54:19.929Z,97982.88
2022-12-08T08:56:48.513Z,97984.75
2022-12-08T08:59:15.432Z,97984.56
2022-12-08T09:01:44.169Z,97983.91
2022-12-08T09:04:11.204Z,97966.38
2022-12-08T09:06:38.524Z,97978.41
2022-12-08T09:09:06.000Z,97983.06
2022-12-08T09:11:33.473Z,97976.91
2022-12-08T09:14:00.631Z,97972.53
2022-12-08T09:16:27.752Z,97973.84
2022-12-08T09:18:54.850Z,97970.16
2022-12-08T09:21:26.190Z,97966.66
2022-12-08T09:23:56.483Z,97968.81
2022-12-08T09:26:25.526Z,97962.97
2022-12-08T09:28:54.348Z,97964.94
2022-12-08T09:31:22.675Z,97954.75
2022-12-08T09:33:53.672Z,97948.38
2022-12-08T09:36:21.262Z,97945.88
2022-12-08T09:38:49.365Z,97943.00
2022-12-08T09:41:42.035Z,97939.63
2022-12-08T09:44:26.291Z,97937.25
2022-12-08T09:46:54.293Z,97939.75
2022-12-08T09:49:28.274Z,97933.72
2022-12-08T09:51:55.525Z,97918.69
2022-12-08T09:54:31.158Z,97915.50
2022-12-08T09:57:01.492Z,97931.97
2022-12-08T09:59:33.854Z,97933.47
2022-12-08T10:02:21.175Z,97929.22
2022-12-08T10:04:48.158Z,97931.22
2022-12-08T10:07:43.974Z,97930.31
2022-12-08T10:10:39.825Z,97918.81
2022-12-08T10:13:24.695Z,97933.50
2022-12-08T10:16:24.281Z,97930.09
2022-12-08T10:19:08.045Z,97923.22
2022-12-08T10:21:35.294Z,97925.34
2022-12-08T10:24:10.789Z,97922.38
2022-12-08T10:26:38.026Z,97918.31
2022-12-08T10:29:05.201Z,97881.06
2022-12-08T10:31:32.570Z,97896.75
2022-12-08T10:34:17.714Z,97910.72
2022-12-08T10:36:45.462Z,97915.34
2022-12-08T10:39:37.237Z,97913.34
2022-12-08T10:42:17.672Z,97910.28
2022-12-08T10:45:28.395Z,97899.66
2022-12-08T10:48:19.659Z,97910.34
2022-12-08T10:50:50.947Z,97908.81
2022-12-08T10:53:24.693Z,97895.28
2022-12-08T10:56:15.297Z,97905.72
2022-12-08T10:58:47.635Z,97899.59
2022-12-08T11:01:14.604Z,97904.41
2022-12-08T11:03:53.340Z,97894.06
2022-12-08T11:06:24.572Z,97894.06
2022-12-08T11:09:04.292Z,97895.00
2022-12-08T11:11:54.344Z,97896.63
2022-12-08T11:14:38.518Z,97896.81
2022-12-08T11:17:41.122Z,97903.34
2022-12-08T11:20:10.956Z,97898.53
2022-12-08T11:22:46.349Z,97891.09
2022-12-08T11:25:21.195Z,97895.81
2022-12-08T11:27:50.909Z,97903.47
2022-12-08T11:30:22.703Z,97898.94
2022-12-08T11:32:55.204Z,97899.94
2022-12-08T11:35:35.197Z,97902.78
2022-12-08T11:38:24.044Z,97900.41
2022-12-08T11:41:08.470Z,97889.09
2022-12-08T11:43:59.963Z,97890.38
2022-12-08T11:46:35.769Z,97893.47
2022-12-08T11:49:13.763Z,97864.16
2022-12-08T11:52:02.972Z,97906.75
2022-12-08T11:54:40.493Z,97899.63
2022-12-08T11:57:16.409Z,97892.00
2022-12-08T11:59:52.466Z,97900.50
2022-12-08T12:02:29.498Z,97913.38
2022-12-08T12:05:56.724Z,97901.06
2022-12-08T12:08:38.383Z,97902.63
2022-12-08T12:11:48.752Z,97907.63
2022-12-08T12:14:21.306Z,97906.16
2022-12-08T12:17:01.325Z,97896.78
2022-12-08T12:19:35.524Z,97876.78
2022-12-08T12:22:21.078Z,97882.63
2022-12-08T12:24:51.109Z,97896.19
2022-12-08T12:27:30.198Z,97895.19
2022-12-08T12:30:07.435Z,97872.16
2022-12-08T12:32:54.911Z,97892.19
2022-12-08T12:35:40.802Z,97896.00
2022-12-08T12:38:38.971Z,97879.03
2022-12-08T12:41:08.584Z,97882.00
2022-12-08T12:43:37.983Z,97881.84
2022-12-08T12:46:53.505Z,97876.38
2022-12-08T12:49:41.312Z,97882.88
2022-12-08T12:52:18.415Z,97887.41
2022-12-08T12:55:10.997Z,97883.91
2022-12-08T12:57:40.382Z,97880.28
2022-12-08T13:00:10.336Z,97872.59
2022-12-08T13:02:46.392Z,97874.59
2022-12-08T13:05:46.226Z,97872.09
2022-12-08T13:08:24.783Z,97876.13
2022-12-08T13:11:10.500Z,97869.59
2022-12-08T13:13:40.960Z,97877.94
2022-12-08T13:16:18.962Z,97874.13
2022-12-08T13:18:52.533Z,97879.47
2022-12-08T13:21:23.077Z,97867.94
2022-12-08T13:23:51.492Z,97874.94
2022-12-08T13:26:20.288Z,97866.91
2022-12-08T13:28:59.629Z,97880.09
2022-12-08T13:31:37.031Z,97869.94
2022-12-08T13:34:12.263Z,97861.97
2022-12-08T13:36:55.594Z,97864.47
2022-12-08T13:39:30.693Z,97862.63
2022-12-08T13:42:21.700Z,97860.97
2022-12-08T13:45:21.366Z,97855.97
2022-12-08T13:54:52.741Z,97850.97
2022-12-08T13:57:02.670Z,97871.81
2022-12-08T13:59:20.320Z,97874.00
2022-12-08T14:01:51.534Z,97875.00
2022-12-08T14:04:47.479Z,97871.34
2022-12-08T14:07:11.747Z,97875.69
2022-12-08T14:09:40.238Z,97877.03
2022-12-08T14:12:16.102Z,97881.03
2022-12-08T14:15:02.581Z,97861.53
2022-12-08T14:17:31.127Z,97873.66
2022-12-08T14:20:15.454Z,97885.31
2022-12-08T14:22:42.641Z,97873.00
2022-12-08T14:25:15.827Z,97886.34
2022-12-08T14:27:43.538Z,97886.50
2022-12-08T14:30:16.239Z,97876.00
2022-12-08T14:32:48.255Z,97883.00
2022-12-08T14:35:28.748Z,97877.81
2022-12-08T14:38:12.538Z,97877.81
2022-12-08T14:40:48.527Z,97886.66
2022-12-08T14:43:20.874Z,97877.34
2022-12-08T14:45:49.503Z,97885.03
2022-12-08T14:48:28.075Z,97878.66
2022-12-08T14:51:04.052Z,97888.69
2022-12-08T14:53:37.901Z,97889.53
2022-12-08T14:56:29.032Z,97872.34
2022-12-08T14:59:25.887Z,97883.66
2022-12-08T15:02:09.305Z,97880.34
2022-12-08T15:04:39.328Z,97881.34
2022-12-08T15:07:13.926Z,97868.66
2022-12-08T15:09:43.403Z,97871.00
2022-12-08T15:12:13.404Z,97887.00
2022-12-08T15:14:56.919Z,97885.34
2022-12-08T15:17:41.943Z,97885.34
2022-12-08T15:20:34.587Z,97884.00
2022-12-08T15:23:02.811Z,97857.34
2022-12-08T15:25:29.925Z,97869.34
2022-12-08T15:27:58.179Z,97876.50
2022-12-08T15:30:28.923Z,97873.84
2022-12-08T15:32:56.570Z,97870.50
2022-12-08T15:35:23.721Z,97868.00
2022-12-08T15:37:50.913Z,97868.84
2022-12-08T15:40:20.368Z,97875.81
2022-12-08T15:42:47.591Z,97875.31
2022-12-08T15:45:15.951Z,97866.66
2022-12-08T15:47:44.489Z,97867.16
2022-12-08T15:50:23.132Z,97861.81
2022-12-08T15:52:51.156Z,97866.31
2022-12-08T15:55:20.237Z,97857.81
2022-12-08T16:00:57.463Z,97867.66
2022-12-08T16:04:09.428Z,97863.47
2022-12-08T16:09:27.094Z,97794.47
2022-12-08T16:12:12.692Z,97860.66
2022-12-08T16:17:29.403Z,97850.28
2022-12-08T16:19:56.685Z,97833.59
2022-12-08T16:25:22.602Z,97848.13
2022-12-08T16:28:36.968Z,97827.97
2022-12-08T16:30:40.554Z,97839.13
2022-12-08T16:33:07.605Z,97846.47
2022-12-08T16:35:34.644Z,97840.75
2022-12-08T16:38:01.747Z,97851.91
2022-12-08T16:40:28.816Z,97830.91
2022-12-08T16:42:55.753Z,97845.91
2022-12-08T16:45:26.065Z,97829.09
2022-12-08T16:47:56.564Z,97844.75
2022-12-08T16:50:27.610Z,97845.78
2022-12-08T16:53:02.737Z,97828.25
2022-12-08T16:55:29.971Z,97842.44
2022-12-08T16:57:57.016Z,97836.59
2022-12-08T17:00:26.242Z,97839.13
2022-12-08T17:02:53.957Z,97831.97
2022-12-08T17:05:22.812Z,97813.28
2022-12-08T17:07:51.680Z,97827.28
2022-12-08T17:10:24.050Z,97818.81
2022-12-08T17:12:52.002Z,97829.63
2022-12-08T17:15:21.680Z,97817.97
2022-12-08T17:17:48.962Z,97831.63
2022-12-08T17:20:19.348Z,97828.28
2022-12-08T17:22:46.653Z,97834.63
2022-12-08T17:25:13.655Z,97838.94
2022-12-08T17:27:41.396Z,97834.09
2022-12-08T17:30:11.861Z,97831.28
2022-12-08T17:32:39.789Z,97813.25
2022-12-08T17:35:07.782Z,97828.13
2022-12-08T17:37:35.318Z,97826.44
2022-12-08T17:40:02.501Z,97827.09
2022-12-08T17:42:29.727Z,97814.25
2022-12-08T17:44:56.697Z,97819.28
2022-12-08T17:47:23.933Z,97821.25
2022-12-08T17:49:51.046Z,97831.28
2022-12-08T17:52:18.005Z,97805.75
2022-12-08T17:54:44.923Z,97825.25
2022-12-08T17:57:11.871Z,97812.25
2022-12-08T17:59:38.894Z,97797.13
2022-12-08T18:02:06.014Z,97812.13
2022-12-08T18:04:33.200Z,97809.97
2022-12-08T18:07:01.552Z,97811.16
2022-12-08T18:09:31.363Z,97813.97
2022-12-08T18:11:58.532Z,97808.78
2022-12-08T18:14:25.676Z,97807.94
2022-12-08T18:16:52.776Z,97800.31
2022-12-08T18:19:19.773Z,97782.16
2022-12-08T18:21:47.010Z,97798.66
2022-12-08T18:24:21.097Z,97789.84
2022-12-08T18:26:48.730Z,97802.31
2022-12-08T18:29:15.807Z,97798.97
2022-12-08T18:31:42.782Z,97797.00
2022-12-08T18:34:09.682Z,97794.66
2022-12-08T18:36:38.778Z,97793.66
2022-12-08T18:39:10.434Z,97793.31
2022-12-08T18:41:37.993Z,97768.66
2022-12-08T18:44:05.016Z,97784.31
2022-12-08T18:46:32.075Z,97781.00
2022-12-08T18:48:59.710Z,97783.47
2022-12-08T18:51:26.750Z,97787.31
2022-12-08T18:53:53.916Z,97783.34
2022-12-08T18:56:26.985Z,97785.66
2022-12-08T18:59:01.284Z,97734.34
2022-12-08T19:01:30.269Z,97789.34
2022-12-08T19:04:26.575Z,97786.84
2022-12-08T19:06:46.326Z,97784.66
2022-12-08T19:09:14.290Z,97771.00
2022-12-08T19:11:42.055Z,97776.84
2022-12-08T19:14:09.525Z,97767.84
2022-12-08T19:16:37.051Z,97783.81
2022-12-08T19:19:04.827Z,97762.50
2022-12-08T19:21:32.530Z,97761.34
2022-12-08T19:24:00.254Z,97788.16
2022-12-08T19:26:28.842Z,97769.66
2022-12-08T19:28:55.927Z,97780.34
2022-12-08T19:31:23.224Z,97786.00
2022-12-08T19:33:50.343Z,97790.03
2022-12-08T19:36:20.691Z,97777.00
2022-12-08T19:39:06.588Z,97791.16
2022-12-08T19:41:52.969Z,97778.69
2022-12-08T19:44:26.823Z,97777.34
2022-12-08T19:46:53.944Z,97770.69
2022-12-08T19:49:21.073Z,97783.69
2022-12-08T19:51:47.994Z,97791.03
2022-12-08T19:54:14.981Z,97781.50
2022-12-08T19:56:41.946Z,97783.19
2022-12-08T19:59:08.966Z,97781.66
2022-12-08T20:01:37.790Z,97770.34
2022-12-08T20:04:05.340Z,97776.03
2022-12-08T20:06:32.552Z,97772.03
2022-12-08T20:08:59.989Z,97771.69
2022-12-08T20:11:27.042Z,97769.66
2022-12-08T20:13:54.015Z,97775.53
2022-12-08T20:16:21.072Z,97781.66
2022-12-08T20:18:48.911Z,97785.00
2022-12-08T20:21:16.312Z,97773.84
2022-12-08T20:23:45.614Z,97775.53
2022-12-08T20:26:13.624Z,97784.66
2022-12-08T20:28:40.571Z,97776.19
2022-12-08T20:31:07.801Z,97767.00
2022-12-08T20:33:35.019Z,97774.16
2022-12-08T20:36:05.212Z,97767.53
2022-12-08T20:38:32.496Z,97746.69
2022-12-08T20:40:59.827Z,97772.69
2022-12-08T20:43:27.027Z,97781.66
2022-12-08T20:45:54.031Z,97782.34
2022-12-08T20:48:21.011Z,97792.66
2022-12-08T20:50:51.696Z,97782.84
2022-12-08T20:53:18.980Z,97782.34
2022-12-08T20:55:46.291Z,97786.97
2022-12-08T20:58:13.451Z,97777.31
2022-12-08T21:00:40.466Z,97788.31
2022-12-08T21:03:07.650Z,97783.66
2022-12-08T21:05:37.217Z,97786.00
2022-12-08T21:08:04.773Z,97779.34
2022-12-08T21:10:36.829Z,97785.31
2022-12-08T21:13:08.445Z,97785.31
2022-12-08T21:15:35.603Z,97781.50
2022-12-08T21:18:02.645Z,97787.16
2022-12-08T21:20:30.097Z,97782.66
2022-12-08T21:22:57.087Z,97781.50
2022-12-08T21:25:24.331Z,97782.00
2022-12-08T21:27:51.345Z,97776.19
2022-12-08T21:30:18.440Z,97789.34
2022-12-08T21:32:46.445Z,97782.00
2022-12-08T21:35:13.432Z,97782.66
2022-12-08T21:37:40.725Z,97778.84
2022-12-08T21:40:08.567Z,97783.53
2022-12-08T21:42:46.367Z,97727.53
2022-12-08T21:45:19.084Z,97774.00
2022-12-08T21:47:48.367Z,97776.03
2022-12-08T21:50:15.501Z,97774.69
2022-12-08T21:52:45.509Z,97775.34
2022-12-08T21:55:16.047Z,97765.69
2022-12-08T21:57:43.179Z,97779.69
2022-12-08T22:00:15.477Z,97778.34
2022-12-08T22:02:43.236Z,97783.34
2022-12-08T22:05:11.568Z,97770.00
2022-12-08T22:07:40.423Z,97763.69
2022-12-08T22:10:08.691Z,97777.34
2022-12-08T22:12:37.824Z,97753.38
2022-12-08T22:15:07.197Z,97765.22
2022-12-08T22:17:39.344Z,97768.03
2022-12-08T22:20:10.413Z,97754.03
2022-12-08T22:22:38.491Z,97761.88
2022-12-08T22:25:07.504Z,97749.53
2022-12-08T22:27:34.775Z,97760.03
2022-12-08T22:30:02.050Z,97759.19
2022-12-08T22:32:29.360Z,97761.03
2022-12-08T22:34:58.182Z,97763.03
2022-12-08T22:37:25.125Z,97740.03
2022-12-08T22:39:52.188Z,97757.53
2022-12-08T22:42:19.438Z,97758.22
2022-12-08T22:44:46.740Z,97763.69
2022-12-08T22:47:14.170Z,97762.00
2022-12-08T22:49:43.433Z,97757.72
2022-12-08T22:52:11.299Z,97758.34
2022-12-08T22:54:38.433Z,97747.06
2022-12-08T22:57:05.686Z,97756.69
2022-12-08T22:59:33.481Z,97736.88
2022-12-08T23:02:00.733Z,97745.38
2022-12-08T23:04:28.127Z,97757.72
2022-12-08T23:06:55.475Z,97744.88
2022-12-08T23:09:22.612Z,97753.72
2022-12-08T23:11:49.783Z,97754.38
2022-12-08T23:14:17.109Z,97757.84
2022-12-08T23:16:44.238Z,97752.38
2022-12-08T23:19:11.464Z,97756.88
2022-12-08T23:21:39.936Z,97735.72
2022-12-08T23:24:07.000Z,97754.03
2022-12-08T23:26:35.530Z,97749.34
2022-12-08T23:29:58.635Z,97742.19
2022-12-08T23:32:26.348Z,97728.38
2022-12-08T23:34:53.769Z,97733.88
2022-12-08T23:37:20.894Z,97736.38
2022-12-08T23:39:48.045Z,97738.03
2022-12-08T23:42:16.239Z,97737.22
2022-12-08T23:44:43.387Z,97733.06
2022-12-08T23:47:10.523Z,97729.88
2022-12-08T23:49:37.924Z,97728.88
2022-12-08T23:52:06.756Z,97737.03
2022-12-08T23:54:36.100Z,97732.19
2022-12-08T23:57:03.153Z,97736.69
2022-12-08T23:59:31.413Z,97727.69
